Terminal Aerodrome Forecast
Issued by NWS

Home | Current Version | Previous Version | Text Only | Print | Product List | Glossary On
Versions: 1 2 3 4 5 6 7 8 9 10 11 12 13 14 15 16 17 18 19
000
FTUS45 KABQ 041821 AAA
TAFLVS
TAF AMD
KLVS 041821Z 0418/0518 20011G20KT P6SM VCTS SCT060CB BKN150
      TEMPO 0419/0423 VRB21G34KT 5SM TSRA OVC035CB
     FM050100 20010KT P6SM VCSH OVC040
     FM050500 19008KT P6SM BKN050=

USA.gov is the U.S. government's official web portal to all federal, state and local government web resources and services.